Time,TemperatureF,DewpointF,PressureIn,WindDirection,WindDirectionDegrees,WindSpeedMPH,WindSpeedGustMPH,Humidity,HourlyPrecipIn,Conditions,Clouds,dailyrainin,SolarRadiationWatts/m^2,SoftwareType,DateUTC
2013-01-28 00:01:00,10.4,-5.0,30.41,West,275,0.0,1.0,49,0.00,,---,0.00,0.00,VWS V14.01,2013-01-28 05:01:00,
2013-01-28 00:03:00,10.4,-5.4,30.41,West,274,0.0,0.0,48,0.00,,---,0.00,0.00,VWS V14.01,2013-01-28 05:03:00,
2013-01-28 00:08:00,10.4,-5.0,30.41,West,274,2.0,2.0,49,0.00,,---,0.00,0.00,VWS V14.01,2013-01-28 05:08:00,
2013-01-28 00:13:00,10.8,-5.5,30.41,North,349,0.0,2.0,47,0.00,,---,0.00,0.00,VWS V14.01,2013-01-28 05:13:00,
2013-01-28 00:18:00,10.4,-5.0,30.40,North,349,0.0,0.0,49,0.00,,---,0.00,0.00,VWS V14.01,2013-01-28 05:18:00,
2013-01-28 00:23:00,10.4,-4.6,30.41,North,349,0.0,0.0,50,0.00,,---,0.00,0.00,VWS V14.01,2013-01-28 05:23:00,
2013-01-28 00:28:00,10.4,-5.8,30.41,North,349,0.0,0.0,47,0.00,,---,0.00,0.00,VWS V14.01,2013-01-28 05:28:00,
2013-01-28 00:33:00,10.1,-4.8,30.41,North,349,0.0,0.0,50,0.00,,---,0.00,0.00,VWS V14.01,2013-01-28 05:33:00,
2013-01-28 00:38:00,9.9,-5.0,30.41,North,349,0.0,2.0,50,0.00,,---,0.00,0.00,VWS V14.01,2013-01-28 05:38:00,
2013-01-28 00:43:00,10.1,-4.8,30.40,North,349,0.0,2.0,50,0.00,,---,0.00,0.00,VWS V14.01,2013-01-28 05:43:00,
2013-01-28 00:48:00,10.3,-5.1,30.40,North,349,0.0,0.0,49,0.00,,---,0.00,0.00,VWS V14.01,2013-01-28 05:48:00,
2013-01-28 00:53:00,10.3,-4.6,30.40,North,349,0.0,0.0,50,0.00,,---,0.00,0.00,VWS V14.01,2013-01-28 05:53:00,
2013-01-28 00:58:00,10.1,-4.8,30.40,North,349,0.0,0.0,50,0.00,,---,0.00,0.00,VWS V14.01,2013-01-28 05:58:00,
2013-01-28 01:03:00,10.1,-5.7,30.40,North,349,0.0,0.0,48,0.00,,---,0.00,0.00,VWS V14.01,2013-01-28 06:03:00,
2013-01-28 01:08:00,10.3,-5.5,30.40,North,349,0.0,0.0,48,0.00,,---,0.00,0.00,VWS V14.01,2013-01-28 06:08:00,
2013-01-28 01:13:00,10.3,-6.4,30.40,North,349,0.0,0.0,46,0.00,,---,0.00,0.00,VWS V14.01,2013-01-28 06:13:00,
2013-01-28 01:18:00,10.4,-7.2,30.40,North,349,0.0,0.0,44,0.00,,---,0.00,0.00,VWS V14.01,2013-01-28 06:18:00,
2013-01-28 01:23:00,10.4,-6.3,30.40,NW,318,2.0,2.0,46,0.00,,---,0.00,0.00,VWS V14.01,2013-01-28 06:23:00,
2013-01-28 01:28:00,11.0,-6.2,30.40,NW,318,0.0,2.0,45,0.00,,---,0.00,0.00,VWS V14.01,2013-01-28 06:28:00,
2013-01-28 01:33:00,10.8,-4.6,30.40,NW,318,0.0,0.0,49,0.00,,---,0.00,0.00,VWS V14.01,2013-01-28 06:33:00,
2013-01-28 01:38:00,10.6,-4.8,30.41,NW,318,1.0,1.0,49,0.00,,---,0.00,0.00,VWS V14.01,2013-01-28 06:38:00,
2013-01-28 01:43:00,10.8,-5.5,30.41,NW,314,0.0,1.0,47,0.00,,---,0.00,0.00,VWS V14.01,2013-01-28 06:43:00,
2013-01-28 01:48:00,11.1,-6.1,30.41,NNW,329,0.0,0.0,45,0.00,,---,0.00,0.00,VWS V14.01,2013-01-28 06:48:00,
2013-01-28 01:53:00,11.3,-6.8,30.42,NNW,329,0.0,0.0,43,0.00,,---,0.00,0.00,VWS V14.01,2013-01-28 06:53:00,
2013-01-28 01:58:00,11.5,-7.1,30.42,NNW,329,0.0,2.0,42,0.00,,---,0.00,0.00,VWS V14.01,2013-01-28 06:58:00,
2013-01-28 02:03:00,11.5,-7.1,30.42,NNW,329,0.0,1.0,42,0.00,,---,0.00,0.00,VWS V14.01,2013-01-28 07:03:00,
2013-01-28 02:08:00,11.3,-6.4,30.42,NNW,329,0.0,1.0,44,0.00,,---,0.00,0.00,VWS V14.01,2013-01-28 07:08:00,
2013-01-28 02:13:00,11.1,-7.0,30.42,NNW,330,0.0,1.0,43,0.00,,---,0.00,0.00,VWS V14.01,2013-01-28 07:13:00,
2013-01-28 02:18:00,11.0,-7.1,30.42,NNW,329,0.0,0.0,43,0.00,,---,0.00,0.00,VWS V14.01,2013-01-28 07:18:00,
2013-01-28 02:23:00,11.0,-6.6,30.41,West,272,0.0,0.0,44,0.00,,---,0.00,0.00,VWS V14.01,2013-01-28 07:23:00,
2013-01-28 02:28:00,10.8,-5.9,30.41,ENE,68,0.0,1.0,46,0.00,,---,0.00,0.00,VWS V14.01,2013-01-28 07:28:00,
2013-01-28 02:33:00,11.0,-7.1,30.41,ENE,68,0.0,0.0,43,0.00,,---,0.00,0.00,VWS V14.01,2013-01-28 07:33:00,
2013-01-28 02:38:00,11.0,-5.7,30.41,WNW,298,0.0,1.0,46,0.00,,---,0.00,0.00,VWS V14.01,2013-01-28 07:38:00,
2013-01-28 02:43:00,10.8,-4.6,30.41,WNW,298,0.0,1.0,49,0.00,,---,0.00,0.00,VWS V14.01,2013-01-28 07:43:00,
2013-01-28 02:48:00,10.6,-5.6,30.40,WNW,298,0.0,0.0,47,0.00,,---,0.00,0.00,VWS V14.01,2013-01-28 07:48:00,
2013-01-28 02:53:00,10.3,-5.9,30.40,WNW,298,0.0,0.0,47,0.00,,---,0.00,0.00,VWS V14.01,2013-01-28 07:53:00,
2013-01-28 02:58:00,9.9,-5.4,30.40,WNW,300,0.0,0.0,49,0.00,,---,0.00,0.00,VWS V14.01,2013-01-28 07:58:00,
2013-01-28 03:03:00,9.8,-5.1,30.39,WNW,301,0.0,0.0,50,0.00,,---,0.00,0.00,VWS V14.01,2013-01-28 08:03:00,
2013-01-28 03:08:00,9.4,-5.5,30.39,WNW,302,0.0,0.0,50,0.00,,---,0.00,0.00,VWS V14.01,2013-01-28 08:08:00,
2013-01-28 03:13:00,9.2,-4.8,30.39,WNW,302,0.0,0.0,52,0.00,,---,0.00,0.00,VWS V14.01,2013-01-28 08:13:00,
2013-01-28 03:18:00,9.2,-6.9,30.39,WNW,302,0.0,0.0,47,0.00,,---,0.00,0.00,VWS V14.01,2013-01-28 08:18:00,
2013-01-28 03:23:00,9.2,-5.2,30.39,WNW,302,0.0,0.0,51,0.00,,---,0.00,0.00,VWS V14.01,2013-01-28 08:23:00,
2013-01-28 03:28:00,8.9,-5.1,30.39,WNW,302,0.0,0.0,52,0.00,,---,0.00,0.00,VWS V14.01,2013-01-28 08:28:00,
2013-01-28 03:33:00,8.5,-4.7,30.39,WNW,302,0.0,0.0,54,0.00,,---,0.00,0.00,VWS V14.01,2013-01-28 08:33:00,
2013-01-28 03:38:00,8.5,-4.7,30.39,WNW,302,0.0,0.0,54,0.00,,---,0.00,0.00,VWS V14.01,2013-01-28 08:38:00,
2013-01-28 03:43:00,8.5,-5.1,30.40,WNW,302,0.0,0.0,53,0.00,,---,0.00,0.00,VWS V14.01,2013-01-28 08:43:00,
2013-01-28 03:48:00,8.7,-6.1,30.40,WNW,302,0.0,0.0,50,0.00,,---,0.00,0.00,VWS V14.01,2013-01-28 08:48:00,
2013-01-28 03:53:00,8.5,-4.3,30.39,WNW,302,0.0,1.0,55,0.00,,---,0.00,0.00,VWS V14.01,2013-01-28 08:53:00,
2013-01-28 03:58:00,8.3,-5.3,30.39,WNW,302,0.0,1.0,53,0.00,,---,0.00,0.00,VWS V14.01,2013-01-28 08:58:00,
2013-01-28 04:03:00,8.3,-5.3,30.39,WNW,302,0.0,0.0,53,0.00,,---,0.00,0.00,VWS V14.01,2013-01-28 09:03:00,
2013-01-28 04:08:00,8.3,-3.8,30.39,WNW,302,0.0,0.0,57,0.00,,---,0.00,0.00,VWS V14.01,2013-01-28 09:08:00,
2013-01-28 04:13:00,8.3,-4.5,30.39,WNW,302,0.0,0.0,55,0.00,,---,0.00,0.00,VWS V14.01,2013-01-28 09:13:00,
2013-01-28 04:18:00,8.5,-5.5,30.39,WNW,302,0.0,1.0,52,0.00,,---,0.00,0.00,VWS V14.01,2013-01-28 09:18:00,
2013-01-28 04:23:00,8.9,-5.9,30.39,WNW,302,0.0,1.0,50,0.00,,---,0.00,0.00,VWS V14.01,2013-01-28 09:23:00,
2013-01-28 04:28:00,9.1,-5.8,30.39,WNW,301,0.0,2.0,50,0.00,,---,0.00,0.00,VWS V14.01,2013-01-28 09:28:00,
2013-01-28 04:33:00,8.9,-5.1,30.39,WNW,301,0.0,0.0,52,0.00,,---,0.00,0.00,VWS V14.01,2013-01-28 09:33:00,
2013-01-28 04:38:00,8.9,-4.7,30.38,WNW,301,0.0,0.0,53,0.00,,---,0.00,0.00,VWS V14.01,2013-01-28 09:38:00,
2013-01-28 04:43:00,8.9,-5.1,30.38,WNW,301,0.0,0.0,52,0.00,,---,0.00,0.00,VWS V14.01,2013-01-28 09:43:00,
2013-01-28 04:48:00,9.4,-5.9,30.38,WNW,301,0.0,0.0,49,0.00,,---,0.00,0.00,VWS V14.01,2013-01-28 09:48:00,
2013-01-28 04:53:00,9.8,-5.9,30.38,WNW,301,0.0,0.0,48,0.00,,---,0.00,0.00,VWS V14.01,2013-01-28 09:53:00,
2013-01-28 04:58:00,9.6,-5.7,30.38,WNW,301,0.0,0.0,49,0.00,,---,0.00,0.00,VWS V14.01,2013-01-28 09:58:00,
2013-01-28 05:03:00,9.4,-5.9,30.38,WNW,301,0.0,0.0,49,0.00,,---,0.00,0.00,VWS V14.01,2013-01-28 10:03:00,
2013-01-28 05:08:00,9.6,-6.1,30.38,WNW,301,0.0,0.0,48,0.00,,---,0.00,0.00,VWS V14.01,2013-01-28 10:08:00,
2013-01-28 05:13:00,9.6,-5.3,30.38,WNW,301,0.0,0.0,50,0.00,,---,0.00,0.00,VWS V14.01,2013-01-28 10:13:00,
2013-01-28 05:18:00,9.2,-4.1,30.37,WNW,301,0.0,0.0,54,0.00,,---,0.00,0.00,VWS V14.01,2013-01-28 10:18:00,
2013-01-28 05:23:00,9.4,-5.5,30.37,WNW,301,0.0,0.0,50,0.00,,---,0.00,0.00,VWS V14.01,2013-01-28 10:23:00,
2013-01-28 05:28:00,9.6,-5.3,30.37,WNW,301,0.0,0.0,50,0.00,,---,0.00,0.00,VWS V14.01,2013-01-28 10:28:00,
2013-01-28 05:33:00,9.4,-4.7,30.38,WNW,301,0.0,0.0,52,0.00,,---,0.00,0.00,VWS V14.01,2013-01-28 10:33:00,
2013-01-28 05:38:00,9.4,-4.7,30.38,WNW,301,0.0,0.0,52,0.00,,---,0.00,0.00,VWS V14.01,2013-01-28 10:38:00,
2013-01-28 05:43:00,9.2,-5.2,30.38,WNW,301,0.0,0.0,51,0.00,,---,0.00,0.00,VWS V14.01,2013-01-28 10:43:00,
2013-01-28 05:48:00,9.1,-4.2,30.38,WNW,301,0.0,0.0,54,0.00,,---,0.00,0.00,VWS V14.01,2013-01-28 10:48:00,
2013-01-28 05:53:00,9.1,-4.6,30.38,WNW,301,0.0,0.0,53,0.00,,---,0.00,0.00,VWS V14.01,2013-01-28 10:53:00,
2013-01-28 05:58:00,9.1,-4.2,30.38,WNW,301,0.0,0.0,54,0.00,,---,0.00,0.00,VWS V14.01,2013-01-28 10:58:00,
2013-01-28 06:03:00,9.2,-5.2,30.37,WNW,301,0.0,0.0,51,0.00,,---,0.00,0.00,VWS V14.01,2013-01-28 11:03:00,
2013-01-28 06:08:00,9.6,-5.3,30.37,WNW,301,0.0,0.0,50,0.00,,---,0.00,0.00,VWS V14.01,2013-01-28 11:08:00,
2013-01-28 06:13:00,9.8,-6.4,30.38,WNW,301,0.0,0.0,47,0.00,,---,0.00,0.00,VWS V14.01,2013-01-28 11:13:00,
2013-01-28 06:18:00,9.8,-5.9,30.38,WNW,301,0.0,0.0,48,0.00,,---,0.00,0.00,VWS V14.01,2013-01-28 11:18:00,
2013-01-28 06:23:00,9.6,-5.3,30.37,WNW,301,0.0,0.0,50,0.00,,---,0.00,0.00,VWS V14.01,2013-01-28 11:23:00,
2013-01-28 06:28:00,9.8,-7.3,30.37,WNW,301,0.0,0.0,45,0.00,,---,0.00,0.00,VWS V14.01,2013-01-28 11:28:00,
2013-01-28 06:33:00,9.8,-5.1,30.37,WNW,301,0.0,0.0,50,0.00,,---,0.00,0.00,VWS V14.01,2013-01-28 11:33:00,
2013-01-28 06:38:00,9.9,-6.7,30.37,WNW,301,0.0,0.0,46,0.00,,---,0.00,0.00,VWS V14.01,2013-01-28 11:38:00,
2013-01-28 06:43:00,10.3,-5.9,30.37,WNW,301,0.0,0.0,47,0.00,,---,0.00,0.00,VWS V14.01,2013-01-28 11:43:00,
2013-01-28 06:48:00,10.3,-5.9,30.37,WNW,301,0.0,0.0,47,0.00,,---,0.00,0.00,VWS V14.01,2013-01-28 11:48:00,
2013-01-28 06:53:00,10.3,-4.2,30.37,WNW,301,0.0,0.0,51,0.00,,---,0.00,0.00,VWS V14.01,2013-01-28 11:53:00,
2013-01-28 06:58:00,10.6,-4.0,30.37,WNW,301,0.0,0.0,51,0.00,,---,0.00,0.00,VWS V14.01,2013-01-28 11:58:00,
2013-01-28 07:03:00,10.8,-3.0,30.37,WNW,301,0.0,0.0,53,0.00,,---,0.00,7.00,VWS V14.01,2013-01-28 12:03:00,
2013-01-28 07:08:00,11.1,-2.7,30.37,WNW,301,0.0,0.0,53,0.00,,---,0.00,5.00,VWS V14.01,2013-01-28 12:08:00,
2013-01-28 07:13:00,11.5,-0.8,30.37,WNW,301,0.0,0.0,57,0.00,,---,0.00,5.00,VWS V14.01,2013-01-28 12:13:00,
2013-01-28 07:18:00,10.3,-2.3,30.37,WNW,301,0.0,0.0,56,0.00,,---,0.00,7.00,VWS V14.01,2013-01-28 12:18:00,
2013-01-28 07:23:00,9.8,-2.0,30.36,WNW,301,0.0,0.0,58,0.00,,---,0.00,9.00,VWS V14.01,2013-01-28 12:23:00,
2013-01-28 07:28:00,9.9,-1.5,30.36,WNW,301,0.0,0.0,59,0.00,,---,0.00,11.00,VWS V14.01,2013-01-28 12:28:00,
2013-01-28 07:33:00,10.4,-0.7,30.36,WNW,301,0.0,1.0,60,0.00,,---,0.00,11.00,VWS V14.01,2013-01-28 12:33:00,
2013-01-28 07:39:00,11.3,-2.9,30.36,WNW,301,0.0,1.0,52,0.00,,---,0.00,11.00,VWS V14.01,2013-01-28 12:39:00,
2013-01-28 07:44:00,12.2,-4.2,30.36,WNW,301,0.0,1.0,47,0.00,,---,0.00,14.00,VWS V14.01,2013-01-28 12:44:00,
2013-01-28 07:49:00,12.8,-2.3,30.37,WNW,301,0.0,0.0,50,0.00,,---,0.00,18.00,VWS V14.01,2013-01-28 12:49:00,
2013-01-28 07:54:00,12.8,-2.7,30.36,WNW,301,0.0,0.0,49,0.00,,---,0.00,21.00,VWS V14.01,2013-01-28 12:54:00,
2013-01-28 07:59:00,12.8,0.1,30.37,WNW,301,0.0,0.0,56,0.00,,---,0.00,23.00,VWS V14.01,2013-01-28 12:59:00,
2013-01-28 08:04:00,12.7,0.4,30.36,WNW,301,0.0,0.0,57,0.00,,---,0.00,25.00,VWS V14.01,2013-01-28 13:04:00,
2013-01-28 08:09:00,12.5,-0.2,30.36,WNW,301,0.0,0.0,56,0.00,,---,0.00,25.00,VWS V14.01,2013-01-28 13:09:00,
2013-01-28 08:14:00,12.7,0.0,30.36,WNW,301,0.0,0.0,56,0.00,,---,0.00,28.00,VWS V14.01,2013-01-28 13:14:00,
2013-01-28 08:19:00,12.7,0.0,30.36,WNW,301,0.0,0.0,56,0.00,,---,0.00,30.00,VWS V14.01,2013-01-28 13:19:00,
2013-01-28 08:24:00,12.8,-1.9,30.36,WNW,301,0.0,0.0,51,0.00,,---,0.00,28.00,VWS V14.01,2013-01-28 13:24:00,
2013-01-28 08:29:00,13.0,-2.1,30.35,WNW,301,0.0,0.0,50,0.00,,---,0.00,40.00,VWS V14.01,2013-01-28 13:29:00,
2013-01-28 08:34:00,13.4,-3.1,30.35,WNW,302,0.0,0.0,47,0.00,,---,0.00,53.00,VWS V14.01,2013-01-28 13:34:00,
2013-01-28 08:39:00,13.5,-2.1,30.35,WNW,302,0.0,0.0,49,0.00,,---,0.00,67.00,VWS V14.01,2013-01-28 13:39:00,
2013-01-28 08:44:00,13.9,-2.6,30.36,WNW,302,0.0,0.0,47,0.00,,---,0.00,63.00,VWS V14.01,2013-01-28 13:44:00,
2013-01-28 08:49:00,14.2,-3.2,30.36,WNW,302,0.0,0.0,45,0.00,,---,0.00,63.00,VWS V14.01,2013-01-28 13:49:00,
2013-01-28 08:54:00,14.5,-1.6,30.35,WNW,302,0.0,0.0,48,0.00,,---,0.00,69.00,VWS V14.01,2013-01-28 13:54:00,
2013-01-28 08:59:00,14.7,-2.8,30.36,WNW,302,0.0,0.0,45,0.00,,---,0.00,72.00,VWS V14.01,2013-01-28 13:59:00,
2013-01-28 09:04:00,14.8,-2.7,30.36,WNW,302,0.0,0.0,45,0.00,,---,0.00,83.00,VWS V14.01,2013-01-28 14:04:00,
2013-01-28 09:09:00,15.1,-2.0,30.36,WNW,302,0.0,0.0,46,0.00,,---,0.00,98.00,VWS V14.01,2013-01-28 14:09:00,
2013-01-28 09:14:00,15.5,-0.7,30.36,WNW,302,0.0,0.0,48,0.00,,---,0.00,90.00,VWS V14.01,2013-01-28 14:14:00,
2013-01-28 09:19:00,15.8,-3.2,30.35,WNW,302,0.0,0.0,42,0.00,,---,0.00,83.00,VWS V14.01,2013-01-28 14:19:00,
2013-01-28 09:24:00,16.4,-1.7,30.35,WNW,302,0.0,0.0,44,0.00,,---,0.00,95.00,VWS V14.01,2013-01-28 14:24:00,
2013-01-28 09:29:00,16.6,-3.0,30.35,WNW,302,0.0,0.0,41,0.00,,---,0.00,100.00,VWS V14.01,2013-01-28 14:29:00,
2013-01-28 09:34:00,17.1,0.3,30.35,WNW,302,0.0,0.0,47,0.00,,---,0.00,97.00,VWS V14.01,2013-01-28 14:34:00,
2013-01-28 09:39:00,17.4,-1.8,30.35,WNW,302,0.0,0.0,42,0.00,,---,0.00,98.00,VWS V14.01,2013-01-28 14:39:00,
2013-01-28 09:44:00,17.6,-2.1,30.35,WNW,302,0.0,0.0,41,0.00,,---,0.00,100.00,VWS V14.01,2013-01-28 14:44:00,
2013-01-28 09:49:00,17.7,-1.5,30.35,WNW,302,0.0,0.0,42,0.00,,---,0.00,97.00,VWS V14.01,2013-01-28 14:49:00,
2013-01-28 09:54:00,18.0,-1.2,30.35,WNW,302,0.0,0.0,42,0.00,,---,0.00,88.00,VWS V14.01,2013-01-28 14:54:00,
2013-01-28 09:59:00,18.2,-3.1,30.35,WNW,302,0.0,0.0,38,0.00,,---,0.00,113.00,VWS V14.01,2013-01-28 14:59:00,
2013-01-28 10:04:00,18.5,0.7,30.35,WNW,302,0.0,0.0,45,0.00,,---,0.00,130.00,VWS V14.01,2013-01-28 15:04:00,
2013-01-28 10:09:00,18.8,1.0,30.35,WNW,302,0.0,0.0,45,0.00,,---,0.00,116.00,VWS V14.01,2013-01-28 15:09:00,
2013-01-28 10:14:00,18.8,1.0,30.35,WNW,302,0.0,0.0,45,0.00,,---,0.00,139.00,VWS V14.01,2013-01-28 15:14:00,
2013-01-28 10:19:00,19.0,1.2,30.34,WNW,302,0.0,0.0,45,0.00,,---,0.00,116.00,VWS V14.01,2013-01-28 15:19:00,
2013-01-28 10:24:00,19.1,1.3,30.34,WNW,302,0.0,0.0,45,0.00,,---,0.00,105.00,VWS V14.01,2013-01-28 15:24:00,
2013-01-28 10:29:00,19.3,0.0,30.34,WNW,302,0.0,0.0,42,0.00,,---,0.00,114.00,VWS V14.01,2013-01-28 15:29:00,
2013-01-28 10:34:00,19.4,0.6,30.33,WNW,302,0.0,0.0,43,0.00,,---,0.00,113.00,VWS V14.01,2013-01-28 15:34:00,
2013-01-28 10:39:00,19.4,0.1,30.33,WNW,302,0.0,0.0,42,0.00,,---,0.00,142.00,VWS V14.01,2013-01-28 15:39:00,
2013-01-28 10:44:00,19.8,0.9,30.33,WNW,302,0.0,1.0,43,0.00,,---,0.00,162.00,VWS V14.01,2013-01-28 15:44:00,
2013-01-28 10:49:00,19.8,-0.1,30.33,WNW,302,0.0,1.0,41,0.00,,---,0.00,148.00,VWS V14.01,2013-01-28 15:49:00,
2013-01-28 10:54:00,20.2,1.8,30.32,WNW,302,0.0,1.0,44,0.00,,---,0.00,176.00,VWS V14.01,2013-01-28 15:54:00,
2013-01-28 10:59:00,20.2,0.3,30.32,WNW,302,0.0,1.0,41,0.00,,---,0.00,206.00,VWS V14.01,2013-01-28 15:59:00,
2013-01-28 11:04:00,20.5,1.1,30.32,WNW,302,0.0,1.0,42,0.00,,---,0.00,176.00,VWS V14.01,2013-01-28 16:04:00,
2013-01-28 11:09:00,21.0,1.0,30.31,WNW,302,0.0,1.0,41,0.00,,---,0.00,158.00,VWS V14.01,2013-01-28 16:09:00,
2013-01-28 11:14:00,21.2,0.1,30.31,WNW,302,0.0,1.0,39,0.00,,---,0.00,146.00,VWS V14.01,2013-01-28 16:14:00,
2013-01-28 11:19:00,21.0,-0.1,30.30,WNW,302,0.0,1.0,39,0.00,,---,0.00,153.00,VWS V14.01,2013-01-28 16:19:00,
2013-01-28 11:24:00,21.0,-0.6,30.30,WNW,302,0.0,1.0,38,0.00,,---,0.00,141.00,VWS V14.01,2013-01-28 16:24:00,
2013-01-28 11:29:00,21.0,-0.6,30.30,WNW,302,0.0,1.0,38,0.00,,---,0.00,121.00,VWS V14.01,2013-01-28 16:29:00,
2013-01-28 11:34:00,21.2,-0.4,30.30,WNW,302,0.0,0.0,38,0.00,,---,0.00,121.00,VWS V14.01,2013-01-28 16:34:00,
2013-01-28 11:39:00,21.5,0.4,30.30,WNW,302,0.0,0.0,39,0.00,,---,0.00,137.00,VWS V14.01,2013-01-28 16:39:00,
2013-01-28 11:44:00,21.5,0.4,30.29,WNW,302,0.0,0.0,39,0.00,,---,0.00,135.00,VWS V14.01,2013-01-28 16:44:00,
2013-01-28 11:49:00,21.7,0.0,30.28,WNW,302,0.0,0.0,38,0.00,,---,0.00,125.00,VWS V14.01,2013-01-28 16:49:00,
2013-01-28 11:54:00,22.0,0.3,30.28,WNW,302,0.0,1.0,38,0.00,,---,0.00,141.00,VWS V14.01,2013-01-28 16:54:00,
2013-01-28 11:59:00,22.4,0.1,30.27,WNW,302,0.0,1.0,37,0.00,,---,0.00,141.00,VWS V14.01,2013-01-28 16:59:00,
2013-01-28 12:04:00,22.4,0.1,30.27,NW,304,0.0,1.0,37,0.00,,---,0.00,121.00,VWS V14.01,2013-01-28 17:04:00,
2013-01-28 12:09:00,22.8,1.0,30.27,NW,304,0.0,1.0,38,0.00,,---,0.00,123.00,VWS V14.01,2013-01-28 17:09:00,
2013-01-28 12:14:00,22.6,1.4,30.27,NW,304,0.0,1.0,39,0.00,,---,0.00,114.00,VWS V14.01,2013-01-28 17:14:00,
2013-01-28 12:19:00,22.6,1.9,30.27,NW,304,0.0,0.0,40,0.00,,---,0.00,111.00,VWS V14.01,2013-01-28 17:19:00,
2013-01-28 12:24:00,22.6,0.8,30.26,NW,304,0.0,0.0,38,0.00,,---,0.00,107.00,VWS V14.01,2013-01-28 17:24:00,
2013-01-28 12:29:00,22.6,1.9,30.26,NW,304,0.0,0.0,40,0.00,,---,0.00,109.00,VWS V14.01,2013-01-28 17:29:00,
2013-01-28 12:34:00,22.8,2.1,30.26,NW,304,0.0,0.0,40,0.00,,---,0.00,98.00,VWS V14.01,2013-01-28 17:34:00,
2013-01-28 12:39:00,22.8,3.2,30.25,NW,304,0.0,0.0,42,0.00,,---,0.00,84.00,VWS V14.01,2013-01-28 17:39:00,
2013-01-28 12:44:00,22.6,3.0,30.25,NW,304,0.0,0.0,42,0.00,,---,0.00,81.00,VWS V14.01,2013-01-28 17:44:00,
2013-01-28 12:49:00,22.8,2.6,30.24,NW,304,0.0,0.0,41,0.00,,---,0.00,90.00,VWS V14.01,2013-01-28 17:49:00,
2013-01-28 12:54:00,22.6,4.0,30.24,WNW,303,0.0,1.0,44,0.00,,---,0.00,104.00,VWS V14.01,2013-01-28 17:54:00,
2013-01-28 12:59:00,22.1,5.9,30.23,WNW,300,0.0,2.0,49,0.00,,---,0.00,95.00,VWS V14.01,2013-01-28 17:59:00,
2013-01-28 13:04:00,21.8,8.9,30.23,SSW,211,0.0,3.0,57,0.00,,---,0.00,86.00,VWS V14.01,2013-01-28 18:04:00,
2013-01-28 13:09:00,21.2,10.6,30.22,SSW,209,0.0,3.0,63,0.00,,---,0.00,95.00,VWS V14.01,2013-01-28 18:09:00,
2013-01-28 13:14:00,20.7,11.5,30.21,SSW,208,0.0,3.0,67,0.00,,---,0.00,148.00,VWS V14.01,2013-01-28 18:14:00,
2013-01-28 13:19:00,20.5,12.0,30.21,ESE,102,2.0,4.0,69,0.00,,---,0.00,144.00,VWS V14.01,2013-01-28 18:19:00,
2013-01-28 13:25:00,19.9,11.4,30.21,ESE,122,0.0,5.0,69,0.00,,---,0.00,86.00,VWS V14.01,2013-01-28 18:25:00,
2013-01-28 13:30:00,19.8,11.9,30.20,ESE,123,0.0,5.0,71,0.00,,---,0.00,95.00,VWS V14.01,2013-01-28 18:30:00,
2013-01-28 13:35:00,19.6,12.4,30.20,ESE,113,4.0,4.0,73,0.00,,---,0.00,130.00,VWS V14.01,2013-01-28 18:35:00,
2013-01-28 13:40:00,19.6,12.7,30.20,ESE,111,0.0,4.0,74,0.00,,---,0.00,113.00,VWS V14.01,2013-01-28 18:40:00,
2013-01-28 13:45:00,19.4,12.5,30.20,ESE,119,4.0,4.0,74,0.00,,---,0.00,120.00,VWS V14.01,2013-01-28 18:45:00,
2013-01-28 13:50:00,19.4,12.8,30.20,ESE,107,2.0,2.0,75,0.00,,---,0.00,95.00,VWS V14.01,2013-01-28 18:50:00,
2013-01-28 13:55:00,19.6,13.0,30.19,ESE,108,2.0,4.0,75,0.00,,---,0.00,93.00,VWS V14.01,2013-01-28 18:55:00,
2013-01-28 14:00:00,19.6,13.0,30.19,SE,128,0.0,4.0,75,0.00,,---,0.00,88.00,VWS V14.01,2013-01-28 19:00:00,
2013-01-28 14:05:00,19.6,13.3,30.19,ENE,67,0.0,1.0,76,0.00,,---,0.00,111.00,VWS V14.01,2013-01-28 19:05:00,
2013-01-28 14:10:00,19.6,13.3,30.19,East,85,2.0,3.0,76,0.00,,---,0.00,97.00,VWS V14.01,2013-01-28 19:10:00,
2013-01-28 14:15:00,19.6,13.3,30.19,East,100,0.0,4.0,76,0.00,,---,0.00,90.00,VWS V14.01,2013-01-28 19:15:00,
2013-01-28 14:20:00,19.6,13.3,30.19,ESE,107,0.0,2.0,76,0.00,,---,0.00,67.00,VWS V14.01,2013-01-28 19:20:00,
2013-01-28 14:25:00,19.6,13.0,30.19,SE,129,4.0,4.0,75,0.00,,---,0.00,54.00,VWS V14.01,2013-01-28 19:25:00,
2013-01-28 14:30:00,19.4,13.1,30.18,ESE,105,1.0,4.0,76,0.00,,---,0.00,44.00,VWS V14.01,2013-01-28 19:30:00,
2013-01-28 14:35:00,19.4,13.4,30.18,ESE,104,0.0,1.0,77,0.00,,---,0.00,42.00,VWS V14.01,2013-01-28 19:35:00,
2013-01-28 14:40:00,19.4,13.7,30.17,ESE,103,1.0,2.0,78,0.00,,---,0.00,28.00,VWS V14.01,2013-01-28 19:40:00,
2013-01-28 14:45:00,19.3,13.6,30.17,ESE,103,0.0,2.0,78,0.00,,---,0.00,26.00,VWS V14.01,2013-01-28 19:45:00,
2013-01-28 14:50:00,19.1,13.7,30.17,ESE,103,0.0,0.0,79,0.00,,---,0.00,30.00,VWS V14.01,2013-01-28 19:50:00,
2013-01-28 14:55:00,19.1,14.0,30.17,ESE,103,0.0,1.0,80,0.00,,---,0.00,23.00,VWS V14.01,2013-01-28 19:55:00,
2013-01-28 15:00:00,19.1,14.0,30.17,ESE,103,0.0,1.0,80,0.00,,---,0.00,26.00,VWS V14.01,2013-01-28 20:00:00,
2013-01-28 15:05:00,19.1,14.2,30.17,ESE,103,0.0,0.0,81,0.00,,---,0.00,25.00,VWS V14.01,2013-01-28 20:05:00,
2013-01-28 15:10:00,19.1,14.5,30.17,ESE,103,0.0,0.0,82,0.00,,---,0.00,30.00,VWS V14.01,2013-01-28 20:10:00,
2013-01-28 15:15:00,19.1,14.8,30.16,ESE,103,0.0,0.0,83,0.00,,---,0.00,25.00,VWS V14.01,2013-01-28 20:15:00,
2013-01-28 15:20:00,19.3,15.0,30.17,ESE,103,0.0,0.0,83,0.00,,---,0.00,18.00,VWS V14.01,2013-01-28 20:20:00,
2013-01-28 15:25:00,19.3,15.0,30.16,ESE,102,0.0,0.0,83,0.00,,---,0.00,14.00,VWS V14.01,2013-01-28 20:25:00,
2013-01-28 15:30:00,19.3,15.3,30.16,ESE,102,0.0,0.0,84,0.00,,---,0.00,18.00,VWS V14.01,2013-01-28 20:30:00,
2013-01-28 15:35:00,19.4,15.4,30.15,ESE,103,0.0,2.0,84,0.00,,---,0.00,16.00,VWS V14.01,2013-01-28 20:35:00,
2013-01-28 15:40:00,19.4,15.4,30.15,ESE,103,0.0,2.0,84,0.00,,---,0.00,12.00,VWS V14.01,2013-01-28 20:40:00,
2013-01-28 15:45:00,19.6,15.8,30.14,ESE,103,0.0,2.0,85,0.00,,---,0.00,12.00,VWS V14.01,2013-01-28 20:45:00,
2013-01-28 15:50:00,19.6,15.6,30.14,ESE,103,0.0,0.0,84,0.00,,---,0.00,12.00,VWS V14.01,2013-01-28 20:50:00,
2013-01-28 15:55:00,19.6,15.6,30.14,ESE,103,0.0,0.0,84,0.00,,---,0.00,18.00,VWS V14.01,2013-01-28 20:55:00,
2013-01-28 16:00:00,19.8,15.8,30.14,ESE,103,0.0,0.0,84,0.00,,---,0.00,14.00,VWS V14.01,2013-01-28 21:00:00,
2013-01-28 16:05:00,19.8,16.0,30.15,ESE,103,0.0,0.0,85,0.00,,---,0.00,12.00,VWS V14.01,2013-01-28 21:05:00,
2013-01-28 16:10:00,19.8,16.0,30.15,ESE,103,0.0,0.0,85,0.00,,---,0.00,7.00,VWS V14.01,2013-01-28 21:10:00,
2013-01-28 16:15:00,19.8,16.0,30.15,ESE,103,0.0,0.0,85,0.00,,---,0.00,5.00,VWS V14.01,2013-01-28 21:15:00,
2013-01-28 16:20:00,19.8,16.0,30.15,ESE,103,0.0,0.0,85,0.00,,---,0.00,5.00,VWS V14.01,2013-01-28 21:20:00,
2013-01-28 16:25:00,19.8,16.0,30.14,ESE,103,0.0,0.0,85,0.00,,---,0.00,0.00,VWS V14.01,2013-01-28 21:25:00,
2013-01-28 16:30:00,19.6,15.8,30.14,ESE,103,0.0,0.0,85,0.00,,---,0.00,0.00,VWS V14.01,2013-01-28 21:30:00,
2013-01-28 16:35:00,19.6,16.1,30.13,ESE,103,0.0,0.0,86,0.00,,---,0.00,0.00,VWS V14.01,2013-01-28 21:35:00,
2013-01-28 16:40:00,19.6,16.1,30.14,ESE,103,0.0,0.0,86,0.00,,---,0.00,0.00,VWS V14.01,2013-01-28 21:40:00,
2013-01-28 16:45:00,19.6,16.1,30.13,ESE,103,0.0,0.0,86,0.00,,---,0.00,0.00,VWS V14.01,2013-01-28 21:45:00,
2013-01-28 16:50:00,19.6,16.1,30.12,ESE,103,0.0,0.0,86,0.00,,---,0.00,0.00,VWS V14.01,2013-01-28 21:50:00,
2013-01-28 16:55:00,19.6,16.1,30.12,ESE,103,0.0,0.0,86,0.00,,---,0.00,0.00,VWS V14.01,2013-01-28 21:55:00,
2013-01-28 17:00:00,19.3,15.8,30.13,ESE,103,0.0,0.0,86,0.00,,---,0.00,0.00,VWS V14.01,2013-01-28 22:00:00,
2013-01-28 17:06:00,19.1,15.6,30.12,ESE,103,0.0,0.0,86,0.00,,---,0.00,0.00,VWS V14.01,2013-01-28 22:06:00,
2013-01-28 17:11:00,18.8,15.3,30.11,ESE,103,0.0,0.0,86,0.00,,---,0.00,0.00,VWS V14.01,2013-01-28 22:11:00,
2013-01-28 17:16:00,18.7,15.2,30.11,ESE,103,0.0,0.0,86,0.00,,---,0.00,0.00,VWS V14.01,2013-01-28 22:16:00,
2013-01-28 17:20:00,18.5,15.0,30.11,ESE,103,0.0,0.0,86,0.00,,---,0.00,0.00,VWS V14.01,2013-01-28 22:20:00,
2013-01-28 17:25:00,18.5,15.0,30.12,ESE,103,0.0,0.0,86,0.00,,---,0.00,0.00,VWS V14.01,2013-01-28 22:25:00,
2013-01-28 17:31:00,18.5,15.0,30.12,ESE,103,0.0,0.0,86,0.00,,---,0.00,0.00,VWS V14.01,2013-01-28 22:31:00,
2013-01-28 17:36:00,18.3,14.8,30.11,ESE,103,0.0,0.0,86,0.00,,---,0.00,0.00,VWS V14.01,2013-01-28 22:36:00,
2013-01-28 17:41:00,18.3,14.8,30.11,ESE,103,0.0,0.0,86,0.00,,---,0.00,0.00,VWS V14.01,2013-01-28 22:41:00,
2013-01-28 17:46:00,18.2,14.7,30.11,ESE,103,0.0,0.0,86,0.00,,---,0.00,0.00,VWS V14.01,2013-01-28 22:46:00,
2013-01-28 17:51:00,18.3,14.8,30.11,ESE,103,0.0,0.0,86,0.00,,---,0.00,0.00,VWS V14.01,2013-01-28 22:51:00,
2013-01-28 17:56:00,18.3,14.8,30.12,ESE,103,0.0,0.0,86,0.00,,---,0.00,0.00,VWS V14.01,2013-01-28 22:56:00,
2013-01-28 18:01:00,18.3,14.8,30.11,ESE,103,0.0,0.0,86,0.00,,---,0.00,0.00,VWS V14.01,2013-01-28 23:01:00,
2013-01-28 18:06:00,18.2,14.7,30.11,ESE,103,0.0,0.0,86,0.00,,---,0.00,0.00,VWS V14.01,2013-01-28 23:06:00,
2013-01-28 18:11:00,18.0,14.5,30.10,ESE,103,0.0,0.0,86,0.00,,---,0.00,0.00,VWS V14.01,2013-01-28 23:11:00,
2013-01-28 18:16:00,18.0,14.5,30.09,ESE,102,0.0,1.0,86,0.00,,---,0.00,0.00,VWS V14.01,2013-01-28 23:16:00,
2013-01-28 18:21:00,18.0,14.5,30.10,ESE,102,0.0,0.0,86,0.00,,---,0.00,0.00,VWS V14.01,2013-01-28 23:21:00,
2013-01-28 18:26:00,18.0,14.5,30.11,ESE,102,0.0,0.0,86,0.00,,---,0.00,0.00,VWS V14.01,2013-01-28 23:26:00,
2013-01-28 18:31:00,18.0,14.5,30.10,ESE,102,0.0,0.0,86,0.00,,---,0.00,0.00,VWS V14.01,2013-01-28 23:31:00,
2013-01-28 18:36:00,17.9,14.4,30.10,ESE,102,0.0,0.0,86,0.00,,---,0.00,0.00,VWS V14.01,2013-01-28 23:36:00,
2013-01-28 18:41:00,18.0,14.5,30.11,ESE,102,0.0,0.0,86,0.00,,---,0.00,0.00,VWS V14.01,2013-01-28 23:41:00,
2013-01-28 18:46:00,17.9,14.4,30.10,ESE,102,0.0,0.0,86,0.00,,---,0.00,0.00,VWS V14.01,2013-01-28 23:46:00,
2013-01-28 18:51:00,17.9,14.4,30.10,ESE,102,0.0,0.0,86,0.00,,---,0.00,0.00,VWS V14.01,2013-01-28 23:51:00,
2013-01-28 18:56:00,18.0,14.5,30.10,ESE,102,0.0,0.0,86,0.00,,---,0.00,0.00,VWS V14.01,2013-01-28 23:56:00,
2013-01-28 19:01:00,18.0,14.5,30.10,ESE,102,0.0,0.0,86,0.00,,---,0.00,0.00,VWS V14.01,2013-01-29 00:01:00,
2013-01-28 19:06:00,18.0,14.5,30.09,ESE,102,0.0,0.0,86,0.00,,---,0.00,0.00,VWS V14.01,2013-01-29 00:06:00,
2013-01-28 19:11:00,17.9,14.4,30.09,ESE,102,0.0,0.0,86,0.00,,---,0.00,0.00,VWS V14.01,2013-01-29 00:11:00,
2013-01-28 19:16:00,17.9,14.7,30.09,ESE,102,0.0,0.0,87,0.00,,---,0.00,0.00,VWS V14.01,2013-01-29 00:16:00,
2013-01-28 19:21:00,17.9,14.7,30.09,ESE,102,0.0,0.0,87,0.00,,---,0.00,0.00,VWS V14.01,2013-01-29 00:21:00,
2013-01-28 19:26:00,17.9,14.7,30.09,ESE,102,0.0,0.0,87,0.00,,---,0.00,0.00,VWS V14.01,2013-01-29 00:26:00,
2013-01-28 19:31:00,17.9,14.7,30.08,ESE,102,0.0,0.0,87,0.00,,---,0.00,0.00,VWS V14.01,2013-01-29 00:31:00,
2013-01-28 19:36:00,17.9,14.7,30.08,ESE,102,0.0,0.0,87,0.00,,---,0.00,0.00,VWS V14.01,2013-01-29 00:36:00,
2013-01-28 19:41:00,17.9,14.7,30.08,ESE,102,0.0,0.0,87,0.00,,---,0.00,0.00,VWS V14.01,2013-01-29 00:41:00,
2013-01-28 19:46:00,18.0,14.8,30.08,ESE,102,0.0,0.0,87,0.00,,---,0.00,0.00,VWS V14.01,2013-01-29 00:46:00,
2013-01-28 19:51:00,18.0,14.8,30.07,ESE,102,0.0,0.0,87,0.00,,---,0.00,0.00,VWS V14.01,2013-01-29 00:51:00,
2013-01-28 19:56:00,18.0,14.8,30.07,ESE,102,0.0,0.0,87,0.00,,---,0.00,0.00,VWS V14.01,2013-01-29 00:56:00,
2013-01-28 20:01:00,17.9,14.7,30.07,ESE,102,0.0,0.0,87,0.00,,---,0.00,0.00,VWS V14.01,2013-01-29 01:01:00,
2013-01-28 20:06:00,17.9,14.7,30.07,ESE,102,0.0,0.0,87,0.00,,---,0.00,0.00,VWS V14.01,2013-01-29 01:06:00,
2013-01-28 20:11:00,17.9,14.7,30.07,ESE,102,0.0,0.0,87,0.00,,---,0.00,0.00,VWS V14.01,2013-01-29 01:11:00,
2013-01-28 20:16:00,18.0,14.8,30.06,ESE,102,0.0,0.0,87,0.00,,---,0.00,0.00,VWS V14.01,2013-01-29 01:16:00,
2013-01-28 20:21:00,18.0,14.8,30.07,ESE,102,0.0,0.0,87,0.00,,---,0.00,0.00,VWS V14.01,2013-01-29 01:21:00,
2013-01-28 20:26:00,18.0,14.8,30.07,ESE,102,0.0,0.0,87,0.00,,---,0.00,0.00,VWS V14.01,2013-01-29 01:26:00,
2013-01-28 20:31:00,18.0,14.8,30.06,ESE,102,0.0,0.0,87,0.00,,---,0.00,0.00,VWS V14.01,2013-01-29 01:31:00,
2013-01-28 20:36:00,18.0,14.8,30.05,ESE,102,0.0,0.0,87,0.00,,---,0.00,0.00,VWS V14.01,2013-01-29 01:36:00,
2013-01-28 20:41:00,18.2,15.0,30.06,ESE,102,0.0,0.0,87,0.00,,---,0.00,0.00,VWS V14.01,2013-01-29 01:41:00,
2013-01-28 20:46:00,18.2,15.0,30.05,ESE,102,0.0,0.0,87,0.00,,---,0.00,0.00,VWS V14.01,2013-01-29 01:46:00,
2013-01-28 20:51:00,18.3,15.1,30.06,ESE,102,0.0,0.0,87,0.00,,---,0.00,0.00,VWS V14.01,2013-01-29 01:51:00,
2013-01-28 20:56:00,18.3,15.1,30.06,ESE,102,0.0,0.0,87,0.00,,---,0.00,0.00,VWS V14.01,2013-01-29 01:56:00,
2013-01-28 21:01:00,18.3,15.1,30.05,ESE,102,0.0,0.0,87,0.00,,---,0.00,0.00,VWS V14.01,2013-01-29 02:01:00,
2013-01-28 21:06:00,18.3,15.1,30.05,ESE,102,0.0,0.0,87,0.00,,---,0.00,0.00,VWS V14.01,2013-01-29 02:06:00,
2013-01-28 21:11:00,18.3,15.1,30.05,ESE,102,0.0,0.0,87,0.00,,---,0.00,0.00,VWS V14.01,2013-01-29 02:11:00,
2013-01-28 21:16:00,18.3,15.1,30.05,ESE,102,0.0,0.0,87,0.00,,---,0.00,0.00,VWS V14.01,2013-01-29 02:16:00,
2013-01-28 21:21:00,18.5,15.3,30.05,ESE,102,0.0,0.0,87,0.00,,---,0.00,0.00,VWS V14.01,2013-01-29 02:21:00,
2013-01-28 21:26:00,18.5,15.3,30.04,ESE,102,0.0,0.0,87,0.00,,---,0.00,0.00,VWS V14.01,2013-01-29 02:26:00,
2013-01-28 21:31:00,18.5,15.3,30.04,ESE,102,0.0,0.0,87,0.00,,---,0.00,0.00,VWS V14.01,2013-01-29 02:31:00,
2013-01-28 21:36:00,18.5,15.3,30.04,ESE,102,0.0,0.0,87,0.00,,---,0.00,0.00,VWS V14.01,2013-01-29 02:36:00,
2013-01-28 21:41:00,18.5,15.3,30.03,ESE,102,0.0,0.0,87,0.00,,---,0.00,0.00,VWS V14.01,2013-01-29 02:41:00,
2013-01-28 21:46:00,18.5,15.3,30.03,ESE,102,0.0,0.0,87,0.00,,---,0.00,0.00,VWS V14.01,2013-01-29 02:46:00,
2013-01-28 21:51:00,18.5,15.3,30.03,ESE,102,0.0,0.0,87,0.00,,---,0.00,0.00,VWS V14.01,2013-01-29 02:51:00,
2013-01-28 21:56:00,18.7,15.7,30.03,ESE,102,0.0,0.0,88,0.00,,---,0.00,0.00,VWS V14.01,2013-01-29 02:56:00,
2013-01-28 22:01:00,18.7,15.5,30.03,ESE,102,0.0,0.0,87,0.00,,---,0.00,0.00,VWS V14.01,2013-01-29 03:01:00,
2013-01-28 22:06:00,18.7,15.5,30.03,ESE,102,0.0,0.0,87,0.00,,---,0.00,0.00,VWS V14.01,2013-01-29 03:06:00,
2013-01-28 22:12:00,18.5,15.3,30.03,ESE,102,0.0,0.0,87,0.00,,---,0.00,0.00,VWS V14.01,2013-01-29 03:12:00,
2013-01-28 22:17:00,18.7,15.5,30.03,ESE,102,0.0,0.0,87,0.00,,---,0.00,0.00,VWS V14.01,2013-01-29 03:17:00,
2013-01-28 22:22:00,18.7,15.5,30.03,ESE,102,0.0,0.0,87,0.00,,---,0.00,0.00,VWS V14.01,2013-01-29 03:22:00,
2013-01-28 22:27:00,18.7,15.5,30.03,ESE,102,0.0,0.0,87,0.00,,---,0.00,0.00,VWS V14.01,2013-01-29 03:27:00,
2013-01-28 22:32:00,18.7,15.7,30.03,ESE,102,0.0,0.0,88,0.00,,---,0.00,0.00,VWS V14.01,2013-01-29 03:32:00,
2013-01-28 22:37:00,18.7,15.7,30.04,ESE,102,0.0,0.0,88,0.00,,---,0.00,0.00,VWS V14.01,2013-01-29 03:37:00,
2013-01-28 22:42:00,18.7,15.7,30.03,ESE,102,0.0,0.0,88,0.00,,---,0.00,0.00,VWS V14.01,2013-01-29 03:42:00,
2013-01-28 22:47:00,18.7,15.7,30.03,ESE,102,0.0,0.0,88,0.00,,---,0.00,0.00,VWS V14.01,2013-01-29 03:47:00,
2013-01-28 22:52:00,18.7,15.7,30.03,ESE,102,0.0,0.0,88,0.00,,---,0.00,0.00,VWS V14.01,2013-01-29 03:52:00,
2013-01-28 22:57:00,18.7,15.7,30.03,ESE,102,0.0,0.0,88,0.00,,---,0.00,0.00,VWS V14.01,2013-01-29 03:57:00,
2013-01-28 23:02:00,18.7,15.7,30.02,ESE,102,0.0,0.0,88,0.00,,---,0.00,0.00,VWS V14.01,2013-01-29 04:02:00,
2013-01-28 23:07:00,18.7,15.7,30.03,ESE,102,0.0,0.0,88,0.00,,---,0.00,0.00,VWS V14.01,2013-01-29 04:07:00,
2013-01-28 23:12:00,18.8,15.8,30.03,ESE,102,0.0,0.0,88,0.00,,---,0.00,0.00,VWS V14.01,2013-01-29 04:12:00,
2013-01-28 23:17:00,18.7,15.7,30.03,ESE,102,0.0,0.0,88,0.00,,---,0.00,0.00,VWS V14.01,2013-01-29 04:17:00,
2013-01-28 23:22:00,18.7,15.7,30.03,ESE,102,0.0,0.0,88,0.00,,---,0.00,0.00,VWS V14.01,2013-01-29 04:22:00,
2013-01-28 23:27:00,18.7,15.7,30.02,ESE,102,0.0,0.0,88,0.00,,---,0.00,0.00,VWS V14.01,2013-01-29 04:27:00,
2013-01-28 23:32:00,18.7,15.7,30.02,ESE,102,0.0,0.0,88,0.00,,---,0.00,0.00,VWS V14.01,2013-01-29 04:32:00,
2013-01-28 23:37:00,18.7,15.7,30.03,ESE,102,0.0,0.0,88,0.00,,---,0.00,0.00,VWS V14.01,2013-01-29 04:37:00,
2013-01-28 23:42:00,18.8,15.8,30.03,ESE,102,0.0,0.0,88,0.00,,---,0.00,0.00,VWS V14.01,2013-01-29 04:42:00,
2013-01-28 23:47:00,18.8,15.8,30.03,ESE,102,0.0,0.0,88,0.00,,---,0.00,0.00,VWS V14.01,2013-01-29 04:47:00,
2013-01-28 23:52:00,18.8,15.8,30.03,ESE,102,0.0,0.0,88,0.00,,---,0.00,0.00,VWS V14.01,2013-01-29 04:52:00,
2013-01-28 23:57:00,18.8,15.8,30.03,ESE,102,0.0,0.0,88,0.00,,---,0.00,0.00,VWS V14.01,2013-01-29 04:57:00,